• Join FlightAware (Why Join?)
  • Login
  • US Flag 
01:40AM EDT


 

Airport Tracker/Info


-or-


 

Live Flight TrackerFlight Track Log ✈ JBU1485 ✈ 16-Jul-2013 ✈ KBOS - KPIT

Flight Track Log - Related Links

Times and Time Zones

All times are in EDT time to prevent confusion due to time zone crossing. See the JBU1485 flight status page for this flight to view local times or setup timezone preferences in your user account.

Time Position Orientation Groundspeed Altitude Reporting Facility
EDT Latitude Longitude Course Direction KTS MPH feet Rate Location/Type
09:12AM 42.3833 -71.0000 285° West 159 183 800  Level KA90
09:13AM 42.4333 -70.9667 26° Northeast 199 229 2,600 1,980 Climbing KA90
09:14AM 42.4500 -70.8833 75° East 267 307 5,000 1,440 Climbing KA90
09:15AM 42.2328 -70.8180 240° Southwest  Level FlightAware Approximate
09:15AM 42.4558 -70.8417 79° East 251 289 5,000  Level Boston Center
09:16AM 42.1833 -70.9609 270° West  Level FlightAware Approximate
09:16AM 42.4022 -70.7447 127° Southeast 311 358 6,800  Level Boston Center
09:17AM 42.2133 -71.1163 285° West  Level FlightAware Approximate
09:17AM 42.3147 -70.7414 178° South 324 373 9,900  Level Boston Center
09:18AM 42.2511 -70.8161 221° Southwest 324 373 11,600 2,100 Climbing Boston Center
09:19AM 42.2175 -70.9375 250° West 333 383 14,200 2,520 Climbing Boston Center
09:20AM 42.2317 -71.0717 278° West 341 392 16,700 1,980 Climbing Boston Center
09:21AM 42.2436 -71.1978 277° West 372 428 18,200 1,740 Climbing Boston Center
09:22AM 42.2619 -71.3572 279° West 385 443 20,200 1,860 Climbing Boston Center
09:23AM 42.2714 -71.5058 275° West 391 450 22,000 1,680 Climbing Boston Center
09:24AM 42.2725 -71.6406 271° West 402 463 23,600 1,680 Climbing Boston Center
09:25AM 42.2756 -71.7947 272° West 407 468 25,400 1,500 Climbing Boston Center
09:26AM 42.2786 -71.9547 272° West 417 480 26,700 1,200 Climbing Boston Center
09:27AM 42.2792 -72.1175 270° West 428 493 27,900 1,260 Climbing Boston Center
09:28AM 42.2836 -72.2942 272° West 433 498 29,300 1,320 Climbing Boston Center
09:29AM 42.2858 -72.4597 271° West 438 504 30,600 1,200 Climbing Boston Center
09:30AM 42.2878 -72.5917 271° West 438 504 31,700 660 Climbing Boston Center
09:31AM 42.2872 -72.7908 270° West 438 504 32,000 120 Climbing Boston Center
09:32AM 42.2867 -72.9650 270° West 443 510 32,000  Level Boston Center
09:33AM 42.2733 -73.1358 264° West 455 524 32,000  Level Boston Center
09:34AM 42.2594 -73.3042 264° West 460 529 32,000  Level Boston Center
09:35AM 42.2500 -73.4497 265° West 455 524 32,000  Level Boston Center
09:36AM 42.2358 -73.6178 264° West 455 524 32,000  Level Boston Center
09:37AM 42.2125 -73.8444 262° West 470 541 32,000  Level Boston Center
09:38AM 42.1956 -74.0150 262° West 470 541 32,000  Level Boston Center
09:39AM 42.1806 -74.1828 263° West 463 533 32,000  Level Boston Center
09:40AM 42.1633 -74.3503 262° West 463 533 32,000  Level Boston Center
09:41AM 42.1458 -74.5178 262° West 463 533 32,000  Level Boston Center
09:42AM 42.1300 -74.6881 263° West 463 533 32,000  Level Boston Center
09:44AM 42.0967 -74.9744 261° West 463 533 32,000 -720 Level New York Center
09:45AM 42.0822 -75.1439 264° West 463 533 30,100 -1,980 Descending New York Center
09:46AM 42.0633 -75.3158 262° West 463 533 28,000 -1,080 Descending New York Center
09:47AM 42.0419 -75.4875 261° West 468 539 28,000  Level New York Center
09:48AM 42.0206 -75.6592 261° West 468 539 28,000  Level New York Center
09:49AM 41.9969 -75.8275 259° West 463 533 28,000  Level New York Center
09:50AM 41.9750 -75.9958 260° West 463 533 28,000  Level New York Center
09:51AM 41.9531 -76.1617 260° West 463 533 28,000  Level New York Center
09:52AM 41.9306 -76.3325 260° West 463 533 28,000  Level New York Center
09:53AM 41.9081 -76.5006 260° West 463 533 28,000 -420 Level New York Center
09:54AM 41.8650 -76.8158 260° West 457 526 26,900 -720 Descending Cleveland Center
09:55AM 41.8408 -76.9792 259° West 451 519 26,000 -960 Descending Cleveland Center
09:56AM 41.8125 -77.1394 257° West 451 519 25,000 -960 Descending Cleveland Center
09:57AM 41.7647 -77.2842 246° West 440 506 24,100 -540 Descending Cleveland Center
09:58AM 41.7103 -77.4314 244° Southwest 440 506 24,000 -60 Descending Cleveland Center
09:59AM 41.6500 -77.5900 243° Southwest 440 506 24,000  Level Cleveland Center
10:00AM 41.5994 -77.7369 245° Southwest 440 506 24,000 -300 Level Cleveland Center
10:01AM 41.5467 -77.8808 244° Southwest 440 506 23,500 -660 Descending Cleveland Center
10:02AM 41.4958 -78.0269 245° Southwest 440 506 22,700 -780 Descending Cleveland Center
10:03AM 41.4489 -78.1731 247° West 435 501 22,000 -360 Descending Cleveland Center
10:04AM 41.4019 -78.3186 247° West 435 501 22,000  Level Cleveland Center
10:05AM 41.3567 -78.4669 248° West 435 501 22,000 -360 Level Cleveland Center
10:06AM 41.3114 -78.6122 248° West 435 501 21,300 -1,020 Descending Cleveland Center
10:07AM 41.2658 -78.7544 247° West 430 495 20,000 -1,320 Descending Cleveland Center
10:08AM 41.2200 -78.8964 247° West 425 489 18,700 -1,200 Descending Cleveland Center
10:09AM 41.1781 -79.0189 246° West 414 476 17,600 -1,200 Descending Cleveland Center
10:10AM 41.1339 -79.1494 246° West 401 461 16,400 -1,260 Descending Cleveland Center
10:11AM 41.0878 -79.2939 247° West 396 456 15,100 -1,260 Descending Cleveland Center
10:12AM 41.0472 -79.4214 247° West 390 449 13,900 -1,200 Descending Cleveland Center
10:13AM 41.0047 -79.5486 246° West 390 449 12,700 -1,200 Descending Cleveland Center
10:14AM 40.9619 -79.6703 245° Southwest 380 437 11,600 -1,140 Descending Cleveland Center
10:15AM 40.8897 -79.7592 223° Southwest 356 410 10,500 -840 Descending Cleveland Center
10:16AM 40.8111 -79.8397 218° Southwest 356 410 10,000 -300 Descending Cleveland Center
10:17AM 40.7344 -79.9200 218° Southwest 361 415 10,000 -480 Level Cleveland Center
10:18AM 40.6661 -79.9892 218° Southwest 340 391 9,100 -1,200 Descending Cleveland Center
10:19AM 40.6100 -80.0469 218° Southwest 319 367 7,700 -1,560 Descending Cleveland Center
10:20AM 40.5792 -80.1458 248° West 262 302 6,000 -900 Descending Cleveland Center
10:21AM 40.5897 -80.2278 280° West 240 276 6,000  Level Cleveland Center
10:22AM 40.6006 -80.3097 280° West 233 268 6,000  Level Cleveland Center
10:24AM 40.5005 -80.2392 217° Southwest  Level Estimated
10:31AM 40.4915 -80.2329 217° Southwest  Level Estimated
10:32AM 40.4915 -80.2329 217° Southwest  Level Estimated
10:33AM 40.4915 -80.2329 217° Southwest  Level Estimated